Time;durP1;ratioP1;P1;durP2;ratioP2;P2;SDS_P1;SDS_P2;PMS_P1;PMS_P2;Temp;Humidity;BMP_temperature;BMP_pressure;BME280_temperature;BME280_humidity;BME280_pressure;Samples;Min_cycle;Max_cycle;Signal;HPM_P1;HPM_P2
2023/08/12 00:00:17;;;;;;;25.00;16.42;;;21.10;99.90;;;;;;5075289;28;20184;-76
2023/08/12 00:02:44;;;;;;;25.30;17.73;;;21.00;99.90;;;;;;5073901;28;20604;-76
2023/08/12 00:05:11;;;;;;;24.13;17.20;;;21.00;99.90;;;;;;5074882;28;20268;-76
2023/08/12 00:07:37;;;;;;;26.67;19.08;;;20.80;99.90;;;;;;5074747;28;20189;-75
2023/08/12 00:10:04;;;;;;;29.10;18.52;;;20.70;99.90;;;;;;5075006;28;20170;-76
2023/08/12 00:12:34;;;;;;;26.63;18.67;;;20.70;99.90;;;;;;5075031;28;20165;-77
2023/08/12 00:15:00;;;;;;;31.98;20.42;;;20.60;99.90;;;;;;5073676;28;20307;-76
2023/08/12 00:17:26;;;;;;;26.92;21.30;;;20.50;99.90;;;;;;5074883;28;20198;-76
2023/08/12 00:19:52;;;;;;;30.45;21.00;;;20.40;99.90;;;;;;5073564;28;20185;-76
2023/08/12 00:22:18;;;;;;;30.83;22.45;;;20.50;99.90;;;;;;5074531;28;20615;-77
2023/08/12 00:24:44;;;;;;;30.88;22.67;;;20.40;99.90;;;;;;5074662;28;20203;-76
2023/08/12 00:27:10;;;;;;;30.02;22.48;;;20.40;99.90;;;;;;5074621;28;20213;-76
2023/08/12 00:29:36;;;;;;;28.08;21.95;;;20.40;99.90;;;;;;5074645;28;20197;-76
2023/08/12 00:32:02;;;;;;;28.40;21.10;;;20.30;99.90;;;;;;5073355;28;20176;-76
2023/08/12 00:34:28;;;;;;;29.30;21.92;;;20.30;99.90;;;;;;5073360;28;20186;-76
2023/08/12 00:36:54;;;;;;;30.10;22.35;;;20.30;99.90;;;;;;5074526;28;20543;-76
2023/08/12 00:39:19;;;;;;;26.30;19.75;;;20.30;99.90;;;;;;5074377;28;20193;-76
2023/08/12 00:41:45;;;;;;;28.67;23.20;;;20.30;99.90;;;;;;5073389;28;20181;-77
2023/08/12 00:44:11;;;;;;;32.10;22.60;;;20.30;99.90;;;;;;5075177;28;20256;-76
2023/08/12 00:46:39;;;;;;;29.48;24.23;;;20.30;99.90;;;;;;5073319;28;20189;-76
2023/08/12 00:49:05;;;;;;;32.38;24.90;;;20.30;99.90;;;;;;5079087;28;20596;-76
2023/08/12 00:51:31;;;;;;;31.52;24.88;;;20.20;99.90;;;;;;5075549;28;20170;-76
2023/08/12 00:53:58;;;;;;;34.20;24.60;;;20.20;99.90;;;;;;5073686;28;20340;-76
2023/08/12 00:56:25;;;;;;;33.55;25.92;;;20.30;99.90;;;;;;5073866;28;20213;-76
2023/08/12 00:58:52;;;;;;;41.42;29.50;;;20.20;99.90;;;;;;5073485;28;20201;-76
2023/08/12 01:01:18;;;;;;;36.10;27.27;;;20.20;99.90;;;;;;5072835;28;20189;-76
2023/08/12 01:03:44;;;;;;;38.13;29.17;;;20.10;99.90;;;;;;5079065;28;20600;-76
2023/08/12 01:06:10;;;;;;;34.95;27.30;;;20.10;99.90;;;;;;5092782;28;20220;-76
2023/08/12 01:08:36;;;;;;;36.40;26.63;;;20.10;99.90;;;;;;5093120;28;20216;-77
2023/08/12 01:11:26;;;;;;;34.60;27.38;;;20.10;99.90;;;;;;5093331;28;20198;-77
2023/08/12 01:14:18;;;;;;;32.30;25.95;;;20.10;99.90;;;;;;5093303;28;20169;-77
2023/08/12 01:16:47;;;;;;;37.20;26.42;;;20.20;99.90;;;;;;5092703;28;20192;-76
2023/08/12 01:19:27;;;;;;;37.90;29.63;;;20.20;99.90;;;;;;5094408;28;20258;-77
2023/08/12 01:21:54;;;;;;;37.90;29.55;;;20.20;99.90;;;;;;5092802;28;20191;-77
2023/08/12 01:24:22;;;;;;;46.72;30.88;;;20.20;99.90;;;;;;5093015;28;20173;-77
2023/08/12 01:26:47;;;;;;;43.50;31.80;;;20.10;99.90;;;;;;5092797;28;20205;-77
2023/08/12 01:29:14;;;;;;;39.33;30.75;;;20.10;99.90;;;;;;5094298;28;20679;-77
2023/08/12 01:31:47;;;;;;;40.72;29.90;;;20.10;99.90;;;;;;5094052;28;20595;-77
2023/08/12 01:34:32;;;;;;;42.17;30.20;;;20.10;99.90;;;;;;5092754;28;20187;-77
2023/08/12 01:36:59;;;;;;;44.67;30.02;;;20.10;99.90;;;;;;5092742;28;20169;-76
2023/08/12 01:39:27;;;;;;;43.55;29.33;;;20.00;99.90;;;;;;5094516;28;20193;-76
2023/08/12 01:41:54;;;;;;;37.60;27.33;;;20.00;99.90;;;;;;5094101;28;20668;-76
2023/08/12 01:44:20;;;;;;;36.85;27.05;;;20.00;99.90;;;;;;5093110;28;20230;-77
2023/08/12 01:46:46;;;;;;;37.78;24.98;;;20.00;99.90;;;;;;5092974;28;20579;-77
2023/08/12 01:49:12;;;;;;;41.58;26.45;;;20.10;99.90;;;;;;5092631;28;20193;-76
2023/08/12 01:51:37;;;;;;;35.70;25.65;;;20.00;99.90;;;;;;5092667;28;20224;-76
2023/08/12 01:54:03;;;;;;;43.08;28.10;;;20.00;99.90;;;;;;5093235;28;20293;-76
2023/08/12 01:56:29;;;;;;;39.58;27.73;;;20.00;99.90;;;;;;5094209;28;20169;-76
2023/08/12 01:58:55;;;;;;;38.00;27.48;;;20.00;99.90;;;;;;5092680;28;20189;-76
2023/08/12 02:01:20;;;;;;;45.72;30.90;;;19.90;99.90;;;;;;5108006;28;20169;-77
2023/08/12 02:03:46;;;;;;;48.00;30.73;;;19.90;99.90;;;;;;5100108;28;20185;-77
2023/08/12 02:06:12;;;;;;;34.17;25.83;;;19.90;99.90;;;;;;5096141;28;20265;-76
2023/08/12 02:08:37;;;;;;;38.70;26.63;;;19.90;99.90;;;;;;5097432;28;20261;-76
2023/08/12 02:11:03;;;;;;;38.90;26.58;;;19.80;99.90;;;;;;5097527;28;20177;-76
2023/08/12 02:13:30;;;;;;;36.35;26.63;;;19.90;99.90;;;;;;5097392;28;20176;-77
2023/08/12 02:15:55;;;;;;;40.85;27.73;;;19.90;99.90;;;;;;5095966;28;20173;-76
2023/08/12 02:18:21;;;;;;;40.20;27.27;;;19.90;99.90;;;;;;5096117;28;20208;-77
2023/08/12 02:20:48;;;;;;;31.73;22.63;;;19.90;99.90;;;;;;5095927;28;20718;-77
2023/08/12 02:23:14;;;;;;;35.72;25.05;;;19.90;99.90;;;;;;5095673;28;20619;-76
2023/08/12 02:25:40;;;;;;;36.42;25.85;;;19.90;99.90;;;;;;5096946;28;20213;-77
2023/08/12 02:28:05;;;;;;;40.30;26.85;;;19.90;99.90;;;;;;5096837;28;20284;-76
2023/08/12 02:30:31;;;;;;;31.40;23.05;;;19.90;99.90;;;;;;5095860;28;20169;-77
2023/08/12 02:32:57;;;;;;;35.38;24.42;;;19.90;99.90;;;;;;5097425;28;20177;-77
2023/08/12 02:35:22;;;;;;;32.40;21.98;;;19.90;99.90;;;;;;5076858;28;20181;-76
2023/08/12 02:37:49;;;;;;;30.52;21.48;;;19.90;99.90;;;;;;5076798;28;20208;-76
2023/08/12 02:40:14;;;;;;;38.75;24.02;;;19.90;99.90;;;;;;5075221;28;20189;-77
2023/08/12 02:42:40;;;;;;;32.00;22.02;;;19.90;99.90;;;;;;5075297;28;20268;-77
2023/08/12 02:45:06;;;;;;;31.55;22.13;;;19.90;99.90;;;;;;5075132;28;20178;-77
2023/08/12 02:47:32;;;;;;;33.90;22.30;;;20.00;99.90;;;;;;5074828;28;20255;-76
2023/08/12 02:49:58;;;;;;;41.08;27.75;;;20.00;99.90;;;;;;5074986;28;20184;-77
2023/08/12 02:52:23;;;;;;;38.65;26.80;;;19.90;99.90;;;;;;5074970;28;20181;-76
2023/08/12 02:54:49;;;;;;;36.75;26.65;;;19.90;99.90;;;;;;5076275;28;20165;-77
2023/08/12 02:57:15;;;;;;;41.90;28.60;;;19.80;99.90;;;;;;5076158;28;20249;-77
2023/08/12 02:59:41;;;;;;;39.63;25.83;;;19.80;99.90;;;;;;5076087;28;20204;-77
2023/08/12 03:02:07;;;;;;;36.05;25.98;;;19.80;99.90;;;;;;5075180;28;20189;-76
2023/08/12 03:04:32;;;;;;;39.92;27.27;;;19.80;99.90;;;;;;5087502;28;20254;-77
2023/08/12 03:06:58;;;;;;;41.90;26.60;;;19.70;99.90;;;;;;5096043;28;20211;-76
2023/08/12 03:09:24;;;;;;;39.72;27.63;;;19.70;99.90;;;;;;5094953;28;20662;-76
2023/08/12 03:11:49;;;;;;;42.83;28.10;;;19.70;99.90;;;;;;5095108;28;20169;-77
2023/08/12 03:14:15;;;;;;;34.70;25.25;;;19.70;99.90;;;;;;5095045;28;20235;-76
2023/08/12 03:16:41;;;;;;;34.88;25.30;;;19.70;99.90;;;;;;5095737;28;20173;-77
2023/08/12 03:19:06;;;;;;;32.70;24.20;;;19.70;99.90;;;;;;5096125;28;20190;-77
2023/08/12 03:21:34;;;;;;;32.25;21.60;;;19.70;99.90;;;;;;5094469;28;20264;-76
2023/08/12 03:24:00;;;;;;;32.20;23.67;;;19.70;99.90;;;;;;5094701;28;20204;-77
2023/08/12 03:26:25;;;;;;;27.50;18.55;;;19.70;99.90;;;;;;5096364;28;20644;-77
2023/08/12 03:28:51;;;;;;;32.75;22.13;;;19.70;99.90;;;;;;5094620;28;20212;-77
2023/08/12 03:31:17;;;;;;;22.95;18.13;;;19.70;99.90;;;;;;5095877;28;20173;-77
2023/08/12 03:33:43;;;;;;;22.25;18.33;;;19.70;99.90;;;;;;5094700;28;20181;-76
2023/08/12 03:36:09;;;;;;;26.92;19.17;;;19.70;99.90;;;;;;5095748;28;20594;-77
2023/08/12 03:38:35;;;;;;;25.98;18.80;;;19.60;99.90;;;;;;5094513;28;20232;-77
2023/08/12 03:41:02;;;;;;;32.10;18.70;;;19.60;99.90;;;;;;5095819;28;20585;-77
2023/08/12 03:43:28;;;;;;;24.50;17.20;;;19.60;99.90;;;;;;5095879;28;20226;-76
2023/08/12 03:45:54;;;;;;;27.75;19.35;;;19.60;99.90;;;;;;5095664;28;20252;-77
2023/08/12 03:48:19;;;;;;;25.40;18.00;;;19.60;99.90;;;;;;5094165;28;20208;-76
2023/08/12 03:50:46;;;;;;;17.80;13.98;;;19.60;99.90;;;;;;5095478;28;20173;-76
2023/08/12 03:53:12;;;;;;;20.08;15.18;;;19.60;99.90;;;;;;5094083;28;20169;-76
2023/08/12 03:55:38;;;;;;;24.48;16.55;;;19.60;99.90;;;;;;5095632;28;20176;-76
2023/08/12 03:58:04;;;;;;;23.75;18.23;;;19.60;99.90;;;;;;5093959;28;20201;-76
2023/08/12 04:00:31;;;;;;;29.33;19.63;;;19.50;99.90;;;;;;5094464;28;20177;-76
2023/08/12 04:02:56;;;;;;;31.20;20.70;;;19.50;99.90;;;;;;5096355;28;20227;-76
2023/08/12 04:05:22;;;;;;;30.02;21.27;;;19.40;99.90;;;;;;5093622;28;20188;-76
2023/08/12 04:07:48;;;;;;;21.48;17.13;;;19.40;99.90;;;;;;5093566;28;20251;-76
2023/08/12 04:10:14;;;;;;;20.20;15.68;;;19.40;99.90;;;;;;5095895;28;20172;-76
2023/08/12 04:12:44;;;;;;;23.27;15.18;;;19.50;99.90;;;;;;5093765;28;20185;-76
2023/08/12 04:15:10;;;;;;;18.17;14.68;;;19.50;99.90;;;;;;5094021;28;20589;-77
2023/08/12 04:17:36;;;;;;;18.30;14.88;;;19.50;99.90;;;;;;5093749;28;20203;-77
2023/08/12 04:20:05;;;;;;;22.00;15.80;;;19.50;99.90;;;;;;5095023;28;20173;-76
2023/08/12 04:22:31;;;;;;;23.73;17.13;;;19.50;99.90;;;;;;5093678;28;20641;-76
2023/08/12 04:24:57;;;;;;;17.90;14.20;;;19.50;99.90;;;;;;5095061;28;20176;-76
2023/08/12 04:27:22;;;;;;;20.40;14.65;;;19.40;99.90;;;;;;5095052;28;20197;-77
2023/08/12 04:29:48;;;;;;;16.70;13.10;;;19.40;99.90;;;;;;5092881;28;20201;-77
2023/08/12 04:32:14;;;;;;;19.50;13.73;;;19.40;99.90;;;;;;5093697;28;20169;-77
2023/08/12 04:34:39;;;;;;;19.45;14.70;;;19.40;99.90;;;;;;5093746;28;20181;-76
2023/08/12 04:37:05;;;;;;;21.30;14.45;;;19.40;99.90;;;;;;5094561;28;20256;-76
2023/08/12 04:39:32;;;;;;;19.45;14.15;;;19.40;99.90;;;;;;5094801;28;20207;-77
2023/08/12 04:41:58;;;;;;;16.50;13.00;;;19.40;99.90;;;;;;5094860;28;20662;-77
2023/08/12 04:44:23;;;;;;;20.05;15.13;;;19.50;99.90;;;;;;5093215;28;20244;-77
2023/08/12 04:46:50;;;;;;;19.55;15.05;;;19.50;99.90;;;;;;5093280;28;20177;-77
2023/08/12 04:49:16;;;;;;;19.92;16.15;;;19.50;99.90;;;;;;5094483;28;20711;-77
2023/08/12 04:51:42;;;;;;;27.10;16.40;;;19.50;99.90;;;;;;5094374;28;20192;-76
2023/08/12 04:54:07;;;;;;;19.13;13.75;;;19.60;99.90;;;;;;5093167;28;20180;-76
2023/08/12 04:56:33;;;;;;;17.23;14.20;;;19.60;99.90;;;;;;5093116;28;20177;-77
2023/08/12 04:58:59;;;;;;;17.08;13.27;;;19.60;99.90;;;;;;5093365;28;20565;-77
2023/08/12 05:01:25;;;;;;;19.70;16.02;;;19.70;99.90;;;;;;5093110;28;20543;-76
2023/08/12 05:03:51;;;;;;;18.88;14.05;;;19.70;99.90;;;;;;5095808;28;20188;-76
2023/08/12 05:06:16;;;;;;;16.08;13.32;;;19.60;99.90;;;;;;5093159;28;20203;-76
2023/08/12 05:08:42;;;;;;;17.85;13.90;;;19.70;99.90;;;;;;5092598;28;20216;-76
2023/08/12 05:11:08;;;;;;;16.50;12.25;;;19.70;99.90;;;;;;5092962;28;20173;-76
2023/08/12 05:13:33;;;;;;;18.35;13.20;;;19.70;99.90;;;;;;5093113;28;20177;-76
2023/08/12 05:15:59;;;;;;;19.52;12.45;;;19.70;99.90;;;;;;5094520;28;20668;-76
2023/08/12 05:18:26;;;;;;;22.58;15.23;;;19.70;99.90;;;;;;5096636;28;20193;-76
2023/08/12 05:20:52;;;;;;;18.05;13.45;;;19.80;99.90;;;;;;5097289;28;20174;-76
2023/08/12 05:23:20;;;;;;;17.63;13.95;;;19.80;99.90;;;;;;5096354;28;20536;-76
2023/08/12 05:25:46;;;;;;;19.70;14.68;;;19.80;99.90;;;;;;5095804;28;20180;-76
2023/08/12 05:28:12;;;;;;;15.52;12.35;;;19.80;99.90;;;;;;5097652;28;20212;-76
2023/08/12 05:30:38;;;;;;;15.48;12.98;;;19.80;99.90;;;;;;5094059;28;20185;-76
2023/08/12 05:33:04;;;;;;;15.93;12.35;;;19.80;99.90;;;;;;5095312;28;20193;-76
2023/08/12 05:35:35;;;;;;;18.25;14.02;;;19.80;99.90;;;;;;5074659;28;20174;-76
2023/08/12 05:38:01;;;;;;;16.20;12.43;;;19.80;99.90;;;;;;5072406;28;20225;-76
2023/08/12 05:40:27;;;;;;;17.90;14.00;;;19.80;99.90;;;;;;5075324;28;20177;-76
2023/08/12 05:42:53;;;;;;;18.45;13.07;;;19.80;99.90;;;;;;5076890;28;20630;-76
2023/08/12 05:45:18;;;;;;;17.42;13.48;;;19.80;99.90;;;;;;5076676;28;20276;-76
2023/08/12 05:47:44;;;;;;;18.15;13.77;;;19.80;99.90;;;;;;5078132;28;20205;-76
2023/08/12 05:50:10;;;;;;;15.70;12.38;;;19.80;99.90;;;;;;5076824;28;20178;-76
2023/08/12 05:52:35;;;;;;;17.13;13.25;;;19.80;99.90;;;;;;5076770;28;20196;-76
2023/08/12 05:55:01;;;;;;;16.95;12.60;;;19.80;99.90;;;;;;5077898;28;20638;-76
2023/08/12 05:57:27;;;;;;;20.45;14.77;;;19.90;99.90;;;;;;5077860;28;20231;-76
2023/08/12 05:59:53;;;;;;;16.60;12.20;;;19.80;99.90;;;;;;5076785;28;20215;-76
2023/08/12 06:02:19;;;;;;;17.85;13.60;;;19.80;99.90;;;;;;5077476;28;20205;-76
2023/08/12 06:04:44;;;;;;;22.00;14.38;;;19.90;99.90;;;;;;5091846;28;20735;-76
2023/08/12 06:07:10;;;;;;;17.10;13.75;;;19.90;99.90;;;;;;5095807;28;20223;-75
2023/08/12 06:09:36;;;;;;;17.55;14.48;;;19.90;99.90;;;;;;5096290;28;20251;-76
2023/08/12 06:12:02;;;;;;;15.75;13.40;;;20.00;99.90;;;;;;5096964;28;20641;-76
2023/08/12 06:14:28;;;;;;;18.75;13.35;;;20.00;99.90;;;;;;5097168;28;20207;-76
2023/08/12 06:16:53;;;;;;;16.40;13.55;;;20.00;99.90;;;;;;5098270;28;20174;-76
2023/08/12 06:19:19;;;;;;;15.15;11.45;;;20.10;99.90;;;;;;5097117;28;20283;-75
2023/08/12 06:21:45;;;;;;;14.95;11.15;;;20.10;99.90;;;;;;5099045;28;20241;-75
2023/08/12 06:24:10;;;;;;;16.27;12.07;;;20.00;99.90;;;;;;5102880;28;20235;-75
2023/08/12 06:26:36;;;;;;;14.38;11.05;;;20.00;99.90;;;;;;5096947;28;20205;-76
2023/08/12 06:29:02;;;;;;;12.80;9.65;;;20.00;99.90;;;;;;5096594;28;20281;-75
2023/08/12 06:31:28;;;;;;;13.93;11.18;;;20.10;99.90;;;;;;5097354;28;20165;-75
2023/08/12 06:33:53;;;;;;;13.70;9.95;;;20.10;99.90;;;;;;5095690;28;20229;-76
2023/08/12 06:36:19;;;;;;;16.77;11.27;;;20.00;99.90;;;;;;5097624;28;20174;-75
2023/08/12 06:38:45;;;;;;;13.73;9.93;;;20.00;99.90;;;;;;5095305;28;20198;-75
2023/08/12 06:41:10;;;;;;;13.38;10.18;;;20.00;99.90;;;;;;5095512;28;20177;-75
2023/08/12 06:43:36;;;;;;;13.75;9.68;;;20.00;99.90;;;;;;5095511;28;20185;-76
2023/08/12 06:46:02;;;;;;;10.90;8.90;;;20.00;99.90;;;;;;5097202;28;20664;-75
2023/08/12 06:48:29;;;;;;;12.98;8.88;;;19.90;99.90;;;;;;5096823;28;20295;-76
2023/08/12 06:50:55;;;;;;;11.75;8.55;;;19.90;99.90;;;;;;5096076;28;20171;-75
2023/08/12 06:53:21;;;;;;;12.13;8.65;;;19.70;99.90;;;;;;5095139;28;20177;-75
2023/08/12 06:55:47;;;;;;;12.77;8.18;;;19.70;99.90;;;;;;5096310;28;20252;-75
2023/08/12 06:58:14;;;;;;;10.85;8.27;;;19.60;99.90;;;;;;5094718;28;20609;-75
2023/08/12 07:00:41;;;;;;;10.18;7.72;;;19.50;99.90;;;;;;5096059;28;20169;-75
2023/08/12 07:03:06;;;;;;;15.93;7.90;;;19.60;99.90;;;;;;5094876;28;20181;-75
2023/08/12 07:05:32;;;;;;;14.70;9.07;;;19.50;99.90;;;;;;5096198;28;20188;-76
2023/08/12 07:07:58;;;;;;;15.43;8.25;;;19.60;99.90;;;;;;5094432;28;20220;-76
2023/08/12 07:10:24;;;;;;;10.07;7.70;;;19.60;99.90;;;;;;5096239;28;20176;-76
2023/08/12 07:12:49;;;;;;;11.73;8.48;;;19.60;99.90;;;;;;5096271;28;20561;-76
2023/08/12 07:15:15;;;;;;;9.57;7.70;;;19.60;99.90;;;;;;5094688;28;20173;-76
2023/08/12 07:17:41;;;;;;;12.77;8.23;;;19.50;99.90;;;;;;5094564;28;20277;-76
2023/08/12 07:20:07;;;;;;;14.35;7.80;;;19.40;99.90;;;;;;5095901;28;20178;-76
2023/08/12 07:22:33;;;;;;;11.23;7.93;;;19.40;99.90;;;;;;5095766;28;20205;-76
2023/08/12 07:25:02;;;;;;;9.63;7.65;;;19.40;99.90;;;;;;5096297;28;20196;-76
2023/08/12 07:27:28;;;;;;;10.00;7.47;;;19.40;99.90;;;;;;5095483;28;21248;-76
2023/08/12 07:29:54;;;;;;;11.15;7.72;;;19.40;99.90;;;;;;5094527;28;20264;-76
2023/08/12 07:32:20;;;;;;;9.82;7.78;;;19.50;99.90;;;;;;5095637;28;20648;-76
2023/08/12 07:34:46;;;;;;;13.23;7.93;;;19.40;99.90;;;;;;5095942;28;20173;-76
2023/08/12 07:37:12;;;;;;;8.23;7.32;;;19.40;99.90;;;;;;5095412;28;20648;-75
2023/08/12 07:39:37;;;;;;;14.02;8.57;;;19.40;99.90;;;;;;5096292;28;20197;-76
2023/08/12 07:42:03;;;;;;;12.65;7.70;;;19.40;99.90;;;;;;5096024;28;20588;-76
2023/08/12 07:44:29;;;;;;;13.82;7.80;;;19.40;99.90;;;;;;5095027;28;20172;-76
2023/08/12 07:46:55;;;;;;;11.80;7.97;;;19.40;99.90;;;;;;5094013;28;20177;-76
2023/08/12 07:49:21;;;;;;;10.02;6.97;;;19.40;99.90;;;;;;5095610;28;20223;-76
2023/08/12 07:51:47;;;;;;;15.43;7.22;;;19.50;99.90;;;;;;5095550;28;20532;-76
2023/08/12 07:54:13;;;;;;;12.50;7.32;;;19.60;99.90;;;;;;5093766;28;20169;-75
2023/08/12 07:56:39;;;;;;;11.27;7.30;;;19.70;99.90;;;;;;5093984;28;20201;-75
2023/08/12 07:59:04;;;;;;;9.98;7.45;;;19.80;99.90;;;;;;5094871;28;20288;-75
2023/08/12 08:01:30;;;;;;;10.00;7.43;;;20.10;99.90;;;;;;5093757;28;20693;-75
2023/08/12 08:03:56;;;;;;;8.18;6.88;;;20.20;99.90;;;;;;5094879;28;20176;-75
2023/08/12 08:06:23;;;;;;;8.73;6.90;;;20.20;99.90;;;;;;5093669;28;20253;-75
2023/08/12 08:08:49;;;;;;;9.00;6.85;;;20.40;99.90;;;;;;5093277;28;20204;-75
2023/08/12 08:11:15;;;;;;;9.95;7.03;;;20.30;99.90;;;;;;5093580;28;20184;-75
2023/08/12 08:13:41;;;;;;;9.15;6.20;;;20.30;99.90;;;;;;5093517;28;20231;-75
2023/08/12 08:16:07;;;;;;;9.88;6.53;;;20.40;99.90;;;;;;5093504;28;20205;-76
2023/08/12 08:18:33;;;;;;;6.97;5.82;;;20.40;99.90;;;;;;5093317;28;20269;-75
2023/08/12 08:20:58;;;;;;;9.02;6.47;;;20.40;99.90;;;;;;5094735;28;20177;-75
2023/08/12 08:23:24;;;;;;;7.07;5.80;;;20.40;99.90;;;;;;5094512;28;20185;-76
2023/08/12 08:25:50;;;;;;;8.05;5.85;;;20.40;99.90;;;;;;5094538;28;20173;-75
2023/08/12 08:28:16;;;;;;;7.32;5.97;;;20.50;99.90;;;;;;5083484;28;20213;-75
2023/08/12 08:30:41;;;;;;;6.60;5.18;;;20.60;99.90;;;;;;5074404;28;20528;-75
2023/08/12 08:33:08;;;;;;;7.53;4.90;;;20.70;99.90;;;;;;5072859;28;20630;-75
2023/08/12 08:35:34;;;;;;;6.03;5.10;;;20.80;99.90;;;;;;5072731;28;20177;-75
2023/08/12 08:38:00;;;;;;;5.53;4.28;;;20.90;99.90;;;;;;5073909;28;20201;-75
2023/08/12 08:40:27;;;;;;;5.68;4.15;;;21.10;99.90;;;;;;5073948;28;20174;-75
2023/08/12 08:42:53;;;;;;;5.95;4.47;;;21.10;99.90;;;;;;5072535;28;20177;-75
2023/08/12 08:45:21;;;;;;;5.32;4.00;;;21.00;99.90;;;;;;5072458;28;20204;-76
2023/08/12 08:47:48;;;;;;;4.38;3.35;;;20.90;99.90;;;;;;5072285;28;20197;-75
2023/08/12 08:50:14;;;;;;;7.00;4.18;;;20.90;99.90;;;;;;5072413;28;20174;-75
2023/08/12 08:52:41;;;;;;;5.70;3.65;;;20.90;99.90;;;;;;5073719;28;20178;-75
2023/08/12 08:55:07;;;;;;;5.35;4.25;;;20.90;99.90;;;;;;5073691;28;20684;-75
2023/08/12 08:57:34;;;;;;;6.78;4.03;;;21.10;99.90;;;;;;5073718;28;20193;-75
2023/08/12 08:59:59;;;;;;;4.72;3.67;;;21.10;99.90;;;;;;5072566;28;20178;-74
2023/08/12 09:02:26;;;;;;;7.63;3.70;;;21.10;99.90;;;;;;5072243;28;20180;-74
2023/08/12 09:04:53;;;;;;;4.97;3.75;;;21.10;99.90;;;;;;5073661;28;20173;-74
2023/08/12 09:07:20;;;;;;;4.60;3.92;;;20.90;99.90;;;;;;5073194;28;20209;-75
2023/08/12 09:09:48;;;;;;;4.75;3.88;;;21.00;99.90;;;;;;5072212;28;20614;-74
2023/08/12 09:12:16;;;;;;;5.63;3.38;;;21.10;99.90;;;;;;5073416;28;20166;-74
2023/08/12 09:14:43;;;;;;;4.35;3.80;;;21.20;99.90;;;;;;5072902;28;20177;-74
2023/08/12 09:17:09;;;;;;;4.68;3.70;;;21.40;99.90;;;;;;5073711;28;20174;-74
2023/08/12 09:19:35;;;;;;;5.72;3.83;;;21.60;99.90;;;;;;5071988;28;20198;-74
2023/08/12 09:22:04;;;;;;;5.55;3.15;;;21.50;99.90;;;;;;5073538;28;20231;-74
2023/08/12 09:24:30;;;;;;;4.57;3.20;;;21.50;99.90;;;;;;5071798;28;20177;-74
2023/08/12 09:26:56;;;;;;;6.00;3.35;;;21.50;99.90;;;;;;5073615;28;20181;-74
2023/08/12 09:29:34;;;;;;;3.50;2.78;;;21.50;99.90;;;;;;5073364;28;20205;-74
2023/08/12 09:32:19;;;;;;;3.97;2.60;;;21.30;99.90;;;;;;5073308;28;20264;-74
2023/08/12 09:34:52;;;;;;;3.50;3.00;;;21.20;99.90;;;;;;5073195;28;20626;-74
2023/08/12 09:37:20;;;;;;;4.75;3.03;;;21.20;99.90;;;;;;5073243;28;20299;-74
2023/08/12 09:39:47;;;;;;;3.65;2.95;;;21.20;99.90;;;;;;5073136;28;20724;-74
2023/08/12 09:42:13;;;;;;;2.83;2.63;;;21.20;99.90;;;;;;5071827;28;20178;-74
2023/08/12 09:44:39;;;;;;;3.75;2.47;;;21.10;99.90;;;;;;5071842;28;20231;-74
2023/08/12 09:47:09;;;;;;;4.10;2.90;;;21.10;99.90;;;;;;5071750;28;20678;-74
2023/08/12 09:49:36;;;;;;;2.63;2.42;;;21.10;99.90;;;;;;5073048;28;20190;-74
2023/08/12 09:52:03;;;;;;;4.75;2.78;;;21.20;99.90;;;;;;5073634;28;20527;-73
2023/08/12 09:54:31;;;;;;;4.20;2.45;;;21.20;99.90;;;;;;5071587;28;20668;-74
2023/08/12 09:56:59;;;;;;;3.63;2.53;;;21.30;99.90;;;;;;5071803;28;20182;-74
2023/08/12 09:59:30;;;;;;;6.28;3.15;;;21.50;99.90;;;;;;5091876;28;20227;-74
2023/08/12 10:01:57;;;;;;;7.07;3.10;;;21.60;99.90;;;;;;5091716;28;20168;-74
2023/08/12 10:04:26;;;;;;;2.92;2.40;;;21.90;99.90;;;;;;5093219;28;20169;-74
2023/08/12 10:06:52;;;;;;;5.28;2.75;;;22.20;99.90;;;;;;5091593;28;20213;-74
2023/08/12 10:09:19;;;;;;;3.88;2.10;;;22.40;99.90;;;;;;5092918;28;20247;-74
2023/08/12 10:11:46;;;;;;;3.38;2.40;;;22.40;99.90;;;;;;5093322;28;20170;-74
2023/08/12 10:14:13;;;;;;;3.30;1.95;;;22.50;99.90;;;;;;5092927;28;20180;-74
2023/08/12 10:16:39;;;;;;;2.22;2.00;;;22.50;99.90;;;;;;5092955;28;20174;-73
2023/08/12 10:19:06;;;;;;;2.00;1.90;;;22.70;99.90;;;;;;5092942;28;20189;-73
2023/08/12 10:21:32;;;;;;;2.20;2.00;;;22.70;99.90;;;;;;5093056;28;20216;-73
2023/08/12 10:24:03;;;;;;;2.78;1.92;;;22.60;99.90;;;;;;5092906;28;20181;-74
2023/08/12 10:26:29;;;;;;;2.38;2.13;;;22.60;99.90;;;;;;5094133;28;20184;-74
2023/08/12 10:28:56;;;;;;;2.15;1.95;;;22.50;99.90;;;;;;5096405;28;20235;-74
2023/08/12 10:31:22;;;;;;;8.38;2.13;;;22.50;99.90;;;;;;5096554;28;20176;-73
2023/08/12 10:33:49;;;;;;;2.80;2.20;;;22.50;99.90;;;;;;5095224;28;20177;-73
2023/08/12 10:36:16;;;;;;;4.03;2.22;;;22.40;99.90;;;;;;5096702;28;20534;-73
2023/08/12 10:38:44;;;;;;;2.55;2.28;;;22.30;99.90;;;;;;5094789;28;20732;-73
2023/08/12 10:41:22;;;;;;;10.35;2.90;;;22.30;99.90;;;;;;5095143;28;20188;-74
2023/08/12 10:44:03;;;;;;;3.15;2.53;;;22.20;99.90;;;;;;5096354;28;20532;-73
2023/08/12 10:46:30;;;;;;;5.93;2.38;;;22.20;99.90;;;;;;5096410;28;20260;-73
2023/08/12 10:49:03;;;;;;;6.32;2.60;;;22.10;99.90;;;;;;5096074;28;20677;-73
2023/08/12 10:51:45;;;;;;;2.88;2.35;;;22.10;99.90;;;;;;5096584;28;20624;-73
2023/08/12 10:54:20;;;;;;;3.42;2.38;;;22.10;99.90;;;;;;5094740;28;20268;-73
2023/08/12 10:57:08;;;;;;;2.70;2.22;;;22.20;99.90;;;;;;5096435;28;20157;-74
2023/08/12 10:59:46;;;;;;;5.25;2.50;;;22.40;99.90;;;;;;5096063;28;20189;-74
2023/08/12 11:02:27;;;;;;;3.28;2.38;;;22.70;99.90;;;;;;5096141;28;20202;-74
2023/08/12 11:04:54;;;;;;;3.47;2.20;;;22.80;99.90;;;;;;5096139;28;20290;-74
2023/08/12 11:07:31;;;;;;;3.53;2.40;;;22.90;99.90;;;;;;5094515;28;20304;-73
2023/08/12 11:10:03;;;;;;;2.97;2.17;;;22.80;99.90;;;;;;5095820;28;20176;-73
2023/08/12 11:12:34;;;;;;;6.78;2.58;;;22.80;99.90;;;;;;5096149;28;20644;-74
2023/08/12 11:15:01;;;;;;;2.72;2.30;;;23.00;99.90;;;;;;5095872;28;20211;-74
2023/08/12 11:17:36;;;;;;;3.80;2.33;;;23.10;99.90;;;;;;5095728;28;20173;-73
2023/08/12 11:20:04;;;;;;;5.88;2.95;;;23.20;99.90;;;;;;5095810;28;20164;-73
2023/08/12 11:22:32;;;;;;;5.00;2.72;;;23.30;99.90;;;;;;5095641;28;20246;-73
2023/08/12 11:24:58;;;;;;;3.03;2.20;;;23.60;99.90;;;;;;5094180;28;20544;-74
2023/08/12 11:27:23;;;;;;;2.47;2.25;;;23.70;99.90;;;;;;5095514;28;20204;-74
2023/08/12 11:29:51;;;;;;;2.47;2.20;;;23.60;99.90;;;;;;5095455;28;20653;-73
2023/08/12 11:32:18;;;;;;;2.25;2.05;;;23.50;99.90;;;;;;5094538;28;20173;-73
2023/08/12 11:34:44;;;;;;;3.53;2.50;;;23.40;99.90;;;;;;5096056;28;20169;-74
2023/08/12 11:37:10;;;;;;;3.10;2.80;;;23.30;99.90;;;;;;5095736;28;20169;-74
2023/08/12 11:39:36;;;;;;;3.47;3.17;;;23.20;99.90;;;;;;5094082;28;20204;-74
2023/08/12 11:42:03;;;;;;;3.65;3.33;;;23.00;99.90;;;;;;5094200;28;20230;-73
2023/08/12 11:44:29;;;;;;;4.57;3.30;;;23.00;99.90;;;;;;5095468;28;20751;-74
2023/08/12 11:46:54;;;;;;;3.67;3.30;;;22.80;99.90;;;;;;5095098;28;20181;-74
2023/08/12 11:49:20;;;;;;;4.78;3.60;;;22.60;99.90;;;;;;5095438;28;20624;-74
2023/08/12 11:51:48;;;;;;;6.68;3.47;;;22.40;99.90;;;;;;5095140;28;20173;-73
2023/08/12 11:54:15;;;;;;;5.07;2.80;;;22.40;99.90;;;;;;5095102;28;20146;-74
2023/08/12 11:56:41;;;;;;;4.22;2.55;;;22.40;99.90;;;;;;5093631;28;20176;-76
2023/08/12 11:59:07;;;;;;;3.08;2.55;;;22.50;99.90;;;;;;5094806;28;20220;-74
2023/08/12 12:01:34;;;;;;;4.03;2.92;;;22.50;99.90;;;;;;5095200;28;20173;-74
2023/08/12 12:04:01;;;;;;;3.20;2.47;;;22.50;99.90;;;;;;5094840;28;20173;-74
2023/08/12 12:06:53;;;;;;;3.75;2.15;;;22.70;99.90;;;;;;5094790;28;20189;-74
2023/08/12 12:09:20;;;;;;;2.30;2.10;;;22.50;99.90;;;;;;5091337;28;20209;-75
2023/08/12 12:11:46;;;;;;;2.40;2.13;;;22.50;99.90;;;;;;5094820;28;20272;-75
2023/08/12 12:14:12;;;;;;;3.63;2.25;;;22.40;99.90;;;;;;5094731;28;20677;-75
2023/08/12 12:16:43;;;;;;;2.90;2.35;;;22.20;99.90;;;;;;5094637;28;20173;-75
2023/08/12 12:19:23;;;;;;;3.90;2.95;;;22.10;99.90;;;;;;5093307;28;20250;-75
2023/08/12 12:21:52;;;;;;;5.60;3.10;;;21.80;99.90;;;;;;5093281;28;20177;-76
2023/08/12 12:24:19;;;;;;;5.55;3.30;;;21.50;99.90;;;;;;5094350;28;20248;-76
2023/08/12 12:26:46;;;;;;;6.43;3.55;;;21.00;99.90;;;;;;5093199;28;20181;-76
2023/08/12 12:29:13;;;;;;;5.45;3.83;;;20.80;99.90;;;;;;5094563;28;20216;-76
2023/08/12 12:31:40;;;;;;;5.78;3.67;;;20.70;99.90;;;;;;5093410;28;20230;-77
2023/08/12 12:34:09;;;;;;;5.00;3.75;;;20.70;99.90;;;;;;5093614;28;20240;-77